Time;durP1;ratioP1;P1;durP2;ratioP2;P2;SDS_P1;SDS_P2;PMS_P1;PMS_P2;Temp;Humidity;BMP_temperature;BMP_pressure;BME280_temperature;BME280_humidity;BME280_pressure;Samples;Min_cycle;Max_cycle;Signal;HPM_P1;HPM_P2
2022/04/29 00:01:19;;;;;;;3.80;2.70;;;13.70;50.70;;;;;;4904079;29;20028;-80
2022/04/29 00:03:45;;;;;;;6.32;2.35;;;13.80;50.80;;;;;;4897988;29;20040;-80
2022/04/29 00:06:13;;;;;;;5.97;2.40;;;13.70;50.70;;;;;;4898839;29;20322;-80
2022/04/29 00:08:39;;;;;;;3.95;2.40;;;13.70;50.90;;;;;;4887168;29;20076;-80
2022/04/29 00:11:05;;;;;;;5.13;2.50;;;13.60;50.80;;;;;;4890678;29;20039;-81
2022/04/29 00:13:31;;;;;;;4.67;2.73;;;13.60;51.10;;;;;;4897576;29;20042;-80
2022/04/29 00:15:56;;;;;;;4.40;2.45;;;13.60;51.80;;;;;;4902062;29;20039;-80
2022/04/29 00:18:22;;;;;;;4.43;2.40;;;13.60;51.30;;;;;;4889325;29;20191;-80
2022/04/29 00:20:49;;;;;;;4.30;2.50;;;13.50;51.90;;;;;;4903309;29;20032;-80
2022/04/29 00:23:14;;;;;;;3.90;2.67;;;13.50;51.40;;;;;;4885295;29;20128;-80
2022/04/29 00:25:40;;;;;;;3.43;2.53;;;13.50;51.40;;;;;;4881929;29;20032;-80
2022/04/29 00:28:07;;;;;;;4.03;2.63;;;13.40;51.40;;;;;;4913933;29;20540;-80
2022/04/29 00:30:33;;;;;;;3.58;2.38;;;13.40;51.70;;;;;;4903499;29;20032;-83
2022/04/29 00:32:59;;;;;;;4.37;2.50;;;13.40;51.80;;;;;;4896288;29;20040;-82
2022/04/29 00:35:26;;;;;;;4.75;2.80;;;13.30;51.80;;;;;;4900253;29;20203;-82
2022/04/29 00:37:54;;;;;;;3.65;2.78;;;13.30;51.90;;;;;;4922714;29;20677;-80
2022/04/29 00:40:30;;;;;;;3.95;2.53;;;13.30;52.40;;;;;;4888873;29;20069;-81
2022/04/29 00:42:57;;;;;;;5.10;2.70;;;13.30;52.30;;;;;;4897766;29;20075;-80
2022/04/29 00:45:24;;;;;;;3.60;2.60;;;13.20;52.30;;;;;;4897334;29;20040;-80
2022/04/29 00:47:51;;;;;;;3.33;2.50;;;13.20;52.40;;;;;;4906702;29;20350;-81
2022/04/29 00:50:23;;;;;;;5.15;2.90;;;13.20;52.50;;;;;;4906430;29;20100;-81
2022/04/29 00:52:52;;;;;;;4.63;2.60;;;13.20;53.30;;;;;;4891931;29;20497;-80
2022/04/29 00:55:18;;;;;;;3.85;2.72;;;13.20;52.90;;;;;;4878937;29;20053;-80
2022/04/29 00:58:21;;;;;;;4.17;2.67;;;13.10;52.80;;;;;;4892824;29;20366;-80
2022/04/29 01:00:47;;;;;;;5.40;2.88;;;13.10;55.10;;;;;;4886989;29;20552;-80
2022/04/29 01:03:14;;;;;;;4.43;2.63;;;13.10;52.70;;;;;;4896653;29;20032;-80
2022/04/29 01:05:41;;;;;;;3.72;2.75;;;13.10;52.90;;;;;;4891534;29;20040;-79
2022/04/29 01:08:07;;;;;;;5.00;2.53;;;13.10;53.00;;;;;;4902607;29;20047;-80
2022/04/29 01:10:33;;;;;;;3.90;2.43;;;13.10;53.00;;;;;;4875234;29;20393;-79
2022/04/29 01:13:01;;;;;;;4.15;2.92;;;13.00;53.10;;;;;;4892418;29;20270;-80
2022/04/29 01:15:28;;;;;;;3.90;2.78;;;13.00;53.40;;;;;;4894481;29;20180;-80
2022/04/29 01:18:00;;;;;;;6.10;2.80;;;13.00;53.30;;;;;;4900931;29;20313;-80
2022/04/29 01:20:28;;;;;;;3.40;2.33;;;13.00;54.00;;;;;;4895899;29;20055;-80
2022/04/29 01:22:53;;;;;;;5.53;3.05;;;13.00;53.50;;;;;;4901281;29;20627;-80
2022/04/29 01:25:19;;;;;;;5.30;2.80;;;12.90;53.50;;;;;;4896048;29;20116;-80
2022/04/29 01:27:45;;;;;;;4.87;2.93;;;12.90;53.70;;;;;;4873204;29;20442;-80
2022/04/29 01:30:17;;;;;;;4.27;2.80;;;12.90;53.90;;;;;;4895943;29;20036;-80
2022/04/29 01:32:43;;;;;;;4.05;2.70;;;12.90;54.30;;;;;;4894661;29;20108;-80
2022/04/29 01:35:12;;;;;;;4.70;2.90;;;12.90;54.00;;;;;;4891091;29;20393;-79
2022/04/29 01:37:38;;;;;;;4.75;3.03;;;12.90;54.50;;;;;;4900973;29;20036;-80
2022/04/29 01:40:06;;;;;;;4.25;2.90;;;12.90;54.20;;;;;;4905883;29;20478;-80
2022/04/29 01:42:31;;;;;;;3.60;2.60;;;12.90;54.20;;;;;;4878558;29;20032;-79
2022/04/29 01:44:57;;;;;;;3.85;2.50;;;12.90;54.20;;;;;;4900648;29;20433;-80
2022/04/29 01:47:23;;;;;;;5.20;2.83;;;12.90;54.20;;;;;;4893878;29;20075;-80
2022/04/29 01:49:49;;;;;;;4.73;2.50;;;12.80;54.20;;;;;;4893761;29;20102;-80
2022/04/29 01:52:14;;;;;;;4.03;2.58;;;12.90;54.40;;;;;;4894466;29;20036;-80
2022/04/29 01:54:40;;;;;;;3.97;2.72;;;12.90;54.40;;;;;;4892855;29;20044;-80
2022/04/29 01:57:07;;;;;;;5.03;2.83;;;12.80;54.50;;;;;;4883512;29;20105;-80
2022/04/29 01:59:34;;;;;;;4.75;3.10;;;12.80;55.20;;;;;;4909198;29;20040;-80
2022/04/29 02:02:00;;;;;;;4.53;2.58;;;12.80;54.60;;;;;;4894086;29;20176;-80
2022/04/29 02:04:26;;;;;;;4.80;2.65;;;12.80;54.60;;;;;;4904885;29;20039;-80
2022/04/29 02:06:52;;;;;;;5.10;2.67;;;12.80;54.70;;;;;;4884535;29;21124;-80
2022/04/29 02:09:17;;;;;;;4.18;2.85;;;12.80;54.70;;;;;;4902957;29;20039;-80
2022/04/29 02:14:29;;;;;;;4.18;2.67;;;12.80;54.80;;;;;;4875269;29;20044;-80
2022/04/29 02:16:55;;;;;;;3.45;2.63;;;12.80;54.80;;;;;;4900370;29;20047;-79
2022/04/29 02:19:22;;;;;;;4.60;2.92;;;12.80;54.90;;;;;;4893344;29;20412;-80
2022/04/29 02:21:48;;;;;;;4.72;3.00;;;12.70;55.10;;;;;;4892319;29;20258;-80
2022/04/29 02:24:14;;;;;;;4.37;2.93;;;12.70;55.00;;;;;;4903948;29;20504;-80
2022/04/29 02:26:39;;;;;;;7.40;2.92;;;12.70;55.10;;;;;;4899995;29;20305;-80
2022/04/29 02:29:07;;;;;;;4.50;2.90;;;12.70;55.20;;;;;;4887032;29;20127;-79
2022/04/29 02:31:33;;;;;;;4.63;2.90;;;12.70;55.20;;;;;;4885933;29;20035;-79
2022/04/29 02:33:58;;;;;;;6.32;2.63;;;12.70;55.20;;;;;;4894439;29;20171;-80
2022/04/29 02:36:24;;;;;;;4.47;2.67;;;12.70;55.30;;;;;;4891449;29;20476;-80
2022/04/29 02:38:49;;;;;;;5.53;2.95;;;12.60;55.20;;;;;;4890452;29;20236;-80
2022/04/29 02:41:15;;;;;;;3.87;2.60;;;12.60;55.40;;;;;;4902357;29;20036;-80
2022/04/29 02:43:41;;;;;;;4.37;2.60;;;12.60;55.40;;;;;;4884012;29;20334;-79
2022/04/29 02:46:07;;;;;;;5.07;2.70;;;12.60;55.50;;;;;;4893513;29;20050;-80
2022/04/29 02:48:33;;;;;;;4.68;2.60;;;12.60;55.40;;;;;;4901986;29;20036;-80
2022/04/29 02:50:59;;;;;;;3.77;2.57;;;12.60;55.50;;;;;;4894182;29;20044;-79
2022/04/29 02:53:25;;;;;;;4.22;2.35;;;12.60;55.70;;;;;;4891356;29;20386;-80
2022/04/29 02:55:50;;;;;;;4.22;2.70;;;12.60;55.80;;;;;;4904912;29;20047;-79
2022/04/29 02:58:16;;;;;;;5.60;2.43;;;12.60;55.80;;;;;;4906647;29;20028;-80
2022/04/29 03:00:41;;;;;;;4.30;2.77;;;12.60;55.80;;;;;;4867282;29;20119;-79
2022/04/29 03:03:07;;;;;;;4.90;2.58;;;12.60;55.90;;;;;;4905916;29;20040;-80
2022/04/29 03:05:33;;;;;;;3.67;2.37;;;12.50;55.80;;;;;;4903596;29;20134;-80
2022/04/29 03:07:59;;;;;;;4.43;2.80;;;12.50;55.90;;;;;;4908774;29;20623;-79
2022/04/29 03:10:25;;;;;;;3.93;2.57;;;12.50;56.20;;;;;;4897303;29;20044;-80
2022/04/29 03:12:51;;;;;;;5.40;3.03;;;12.50;56.20;;;;;;4902852;29;20603;-80
2022/04/29 03:15:17;;;;;;;3.95;2.85;;;12.50;56.20;;;;;;4886942;29;20505;-80
2022/04/29 03:20:36;;;;;;;5.63;2.60;;;12.50;56.80;;;;;;4898394;29;20037;-79
2022/04/29 03:23:02;;;;;;;5.22;2.75;;;12.50;56.70;;;;;;4885562;29;20528;-79
2022/04/29 03:25:28;;;;;;;4.57;2.73;;;12.40;56.30;;;;;;4921090;29;20118;-80
2022/04/29 03:27:54;;;;;;;4.82;2.58;;;12.40;56.40;;;;;;4890610;29;20263;-80
2022/04/29 03:30:19;;;;;;;6.70;2.70;;;12.50;56.50;;;;;;4886456;29;20077;-79
2022/04/29 03:32:57;;;;;;;4.85;2.55;;;12.40;56.50;;;;;;4891545;29;20445;-80
2022/04/29 03:35:24;;;;;;;4.60;2.50;;;12.40;57.70;;;;;;4906258;29;20056;-80
2022/04/29 03:37:52;;;;;;;4.37;2.80;;;12.40;56.50;;;;;;4887797;29;20388;-79
2022/04/29 03:40:22;;;;;;;4.18;2.40;;;12.40;56.70;;;;;;4895818;29;20024;-80
2022/04/29 03:42:57;;;;;;;4.75;2.50;;;12.40;57.00;;;;;;4900098;29;20286;-80
2022/04/29 03:45:26;;;;;;;4.10;2.53;;;12.40;57.60;;;;;;4890696;29;20047;-79
2022/04/29 03:47:54;;;;;;;4.47;2.80;;;12.40;57.00;;;;;;4911355;28;20326;-80
2022/04/29 03:50:23;;;;;;;3.63;2.43;;;12.40;56.80;;;;;;4905987;29;20043;-80
2022/04/29 03:52:55;;;;;;;4.00;2.60;;;12.40;56.70;;;;;;4883544;29;20508;-80
2022/04/29 03:55:22;;;;;;;3.55;2.67;;;12.40;56.90;;;;;;4906785;29;20044;-80
2022/04/29 03:57:48;;;;;;;3.70;2.63;;;12.40;56.90;;;;;;4890183;29;20127;-80
2022/04/29 04:00:14;;;;;;;4.50;2.53;;;12.40;56.80;;;;;;4907170;29;20131;-80
2022/04/29 04:02:40;;;;;;;5.63;2.67;;;12.40;56.90;;;;;;4883135;29;20032;-82
2022/04/29 04:05:07;;;;;;;4.13;2.40;;;12.40;57.00;;;;;;4898564;29;20043;-82
2022/04/29 04:07:33;;;;;;;5.65;2.78;;;12.40;57.00;;;;;;4899604;29;20445;-82
2022/04/29 04:09:59;;;;;;;6.47;2.80;;;12.30;56.90;;;;;;4885313;29;20036;-82
2022/04/29 04:12:25;;;;;;;3.85;2.42;;;12.40;57.00;;;;;;4902341;29;20096;-82
2022/04/29 04:14:51;;;;;;;4.43;2.60;;;12.40;57.00;;;;;;4903773;29;20032;-80
2022/04/29 04:17:17;;;;;;;4.47;2.40;;;12.30;57.00;;;;;;4876789;29;20344;-80
2022/04/29 04:19:42;;;;;;;4.45;2.65;;;12.30;57.10;;;;;;4894112;29;20163;-80
2022/04/29 04:22:08;;;;;;;4.70;2.57;;;12.30;57.00;;;;;;4903928;29;20470;-80
2022/04/29 04:24:34;;;;;;;4.03;2.58;;;12.30;57.00;;;;;;4883815;29;20324;-79
2022/04/29 04:26:59;;;;;;;4.13;2.40;;;12.20;57.00;;;;;;4901812;29;20040;-80
2022/04/29 04:29:25;;;;;;;4.00;2.50;;;12.20;57.00;;;;;;4902208;29;20032;-80
2022/04/29 04:31:52;;;;;;;4.43;2.53;;;12.20;57.00;;;;;;4874156;29;20592;-80
2022/04/29 04:37:03;;;;;;;3.60;2.35;;;12.10;57.20;;;;;;4899424;29;20036;-80
2022/04/29 04:39:29;;;;;;;4.13;2.85;;;12.10;57.20;;;;;;4889123;29;20096;-80
2022/04/29 04:41:55;;;;;;;3.53;2.40;;;12.10;57.30;;;;;;4892340;29;20231;-80
2022/04/29 04:44:21;;;;;;;4.50;2.38;;;12.00;57.20;;;;;;4899378;29;20535;-79
2022/04/29 04:46:46;;;;;;;4.15;2.30;;;12.00;57.30;;;;;;4899590;29;20040;-80
2022/04/29 04:49:13;;;;;;;3.67;2.30;;;11.90;57.30;;;;;;4883239;29;20038;-80
2022/04/29 04:51:40;;;;;;;4.22;2.35;;;11.90;57.40;;;;;;4890597;29;20044;-80
2022/04/29 04:54:05;;;;;;;4.75;2.30;;;11.90;57.70;;;;;;4906751;29;20044;-80
2022/04/29 04:56:31;;;;;;;4.28;2.35;;;11.90;57.50;;;;;;4886561;29;20046;-80
2022/04/29 04:58:57;;;;;;;4.37;2.33;;;11.80;57.50;;;;;;4900709;29;20068;-80
2022/04/29 05:01:23;;;;;;;4.05;2.33;;;11.80;57.50;;;;;;4880666;29;20040;-80
2022/04/29 05:03:49;;;;;;;4.05;2.33;;;11.80;57.70;;;;;;4873318;29;21665;-80
2022/04/29 05:06:14;;;;;;;3.73;2.30;;;11.80;57.70;;;;;;4875005;29;20036;-80
2022/04/29 05:08:40;;;;;;;3.95;2.58;;;11.80;57.80;;;;;;4891593;29;20334;-80
2022/04/29 05:11:05;;;;;;;3.80;2.40;;;11.80;58.00;;;;;;4895768;29;20072;-80
2022/04/29 05:13:31;;;;;;;4.10;2.70;;;11.80;58.00;;;;;;4886187;29;20089;-80
2022/04/29 05:15:57;;;;;;;4.25;2.50;;;11.80;58.00;;;;;;4904630;29;20039;-80
2022/04/29 05:18:23;;;;;;;3.77;2.27;;;11.70;58.00;;;;;;4898147;29;20039;-80
2022/04/29 05:20:48;;;;;;;4.75;2.35;;;11.70;58.10;;;;;;4866352;29;20978;-79
2022/04/29 05:23:14;;;;;;;3.50;2.38;;;11.80;58.30;;;;;;4887811;29;20092;-80
2022/04/29 05:25:40;;;;;;;3.43;2.57;;;11.80;58.30;;;;;;4892979;29;20095;-79
2022/04/29 05:28:07;;;;;;;4.03;2.47;;;11.80;58.40;;;;;;4905205;29;20032;-80
2022/04/29 05:30:33;;;;;;;3.50;2.20;;;11.80;58.40;;;;;;4899488;29;20069;-80
2022/04/29 05:32:59;;;;;;;3.80;2.40;;;11.80;58.40;;;;;;4892073;29;20036;-80
2022/04/29 05:35:24;;;;;;;3.95;2.60;;;11.80;58.50;;;;;;4906135;28;20032;-79
2022/04/29 05:37:51;;;;;;;4.88;2.30;;;11.90;58.60;;;;;;4894420;29;20334;-80
2022/04/29 05:43:02;;;;;;;4.45;2.67;;;11.90;58.70;;;;;;4889934;29;20067;-82
2022/04/29 05:45:28;;;;;;;3.65;2.35;;;11.90;58.60;;;;;;4903454;29;20738;-82
2022/04/29 05:47:53;;;;;;;4.65;2.45;;;12.00;58.70;;;;;;4903677;29;20071;-82
2022/04/29 05:50:19;;;;;;;4.20;2.50;;;12.00;58.80;;;;;;4914435;29;20033;-81
2022/04/29 05:52:44;;;;;;;4.78;2.55;;;12.00;58.80;;;;;;4862095;29;20040;-81
2022/04/29 05:55:11;;;;;;;4.73;2.53;;;12.10;58.90;;;;;;4898680;29;20048;-81
2022/04/29 05:57:37;;;;;;;4.00;2.45;;;12.10;58.90;;;;;;4880710;29;20705;-82
2022/04/29 06:00:03;;;;;;;4.83;2.57;;;12.10;58.90;;;;;;4884042;29;20021;-82
2022/04/29 06:02:29;;;;;;;4.10;2.42;;;12.20;59.10;;;;;;4890420;29;20157;-82
2022/04/29 06:04:54;;;;;;;3.97;2.50;;;12.20;59.20;;;;;;4896548;29;20333;-82
2022/04/29 06:07:20;;;;;;;4.30;2.57;;;12.20;59.00;;;;;;4873380;29;20036;-82
2022/04/29 06:09:46;;;;;;;4.27;2.50;;;12.30;59.20;;;;;;4886585;29;20271;-82
2022/04/29 06:12:11;;;;;;;4.85;2.33;;;12.30;58.90;;;;;;4887010;29;20043;-81
2022/04/29 06:14:37;;;;;;;4.73;2.80;;;12.30;59.00;;;;;;4886074;29;20043;-82
2022/04/29 06:17:03;;;;;;;4.50;2.55;;;12.30;59.00;;;;;;4910560;29;20028;-82
2022/04/29 06:19:29;;;;;;;5.25;2.63;;;12.40;59.10;;;;;;4883513;29;20508;-79
2022/04/29 06:21:54;;;;;;;4.03;2.40;;;12.40;59.10;;;;;;4876293;29;20112;-80
2022/04/29 06:24:20;;;;;;;3.70;2.40;;;12.40;59.10;;;;;;4885240;29;20127;-79
2022/04/29 06:26:47;;;;;;;4.45;2.70;;;12.50;59.20;;;;;;4880439;29;20039;-80
2022/04/29 06:29:12;;;;;;;3.92;2.42;;;12.60;59.40;;;;;;4903558;29;20067;-80
2022/04/29 06:31:38;;;;;;;3.70;2.50;;;12.60;59.50;;;;;;4891269;29;20469;-80
2022/04/29 06:34:04;;;;;;;4.80;2.67;;;12.60;59.50;;;;;;4886351;29;20192;-79
2022/04/29 06:36:30;;;;;;;4.63;2.43;;;12.70;59.50;;;;;;4885996;29;20044;-79
2022/04/29 06:38:55;;;;;;;5.40;2.65;;;12.80;59.50;;;;;;4883139;29;20051;-80
2022/04/29 06:41:21;;;;;;;3.90;2.47;;;12.90;59.50;;;;;;4880274;29;20040;-79
2022/04/29 06:43:47;;;;;;;4.63;2.53;;;13.00;59.30;;;;;;4899119;29;20422;-80
2022/04/29 06:46:15;;;;;;;4.00;2.50;;;13.00;59.20;;;;;;4892382;29;20032;-80
2022/04/29 06:48:41;;;;;;;4.93;2.55;;;13.10;59.30;;;;;;4898174;29;20036;-80
2022/04/29 06:51:06;;;;;;;4.43;2.50;;;13.20;59.30;;;;;;4881386;29;20073;-80
2022/04/29 06:53:33;;;;;;;4.70;2.67;;;13.30;59.20;;;;;;4887772;28;20200;-80
2022/04/29 06:55:59;;;;;;;4.67;2.77;;;13.30;59.00;;;;;;4903998;29;20135;-80
2022/04/29 06:58:24;;;;;;;4.05;2.70;;;13.40;59.00;;;;;;4877337;29;22536;-80
2022/04/29 07:00:50;;;;;;;5.00;2.83;;;13.40;58.90;;;;;;4898972;29;20075;-80
2022/04/29 07:03:15;;;;;;;4.72;2.65;;;13.40;58.90;;;;;;4883143;29;20163;-80
2022/04/29 07:05:41;;;;;;;5.73;2.87;;;13.50;58.80;;;;;;4898013;29;20051;-80
2022/04/29 07:08:07;;;;;;;6.05;2.92;;;13.60;59.00;;;;;;4870005;29;20055;-79
2022/04/29 07:10:33;;;;;;;6.22;2.92;;;13.60;58.80;;;;;;4893539;29;20070;-80
2022/04/29 07:13:03;;;;;;;5.63;3.03;;;13.60;58.80;;;;;;4892622;29;20042;-80
2022/04/29 07:15:28;;;;;;;5.28;2.88;;;13.60;58.70;;;;;;4890169;29;20540;-80
2022/04/29 07:17:54;;;;;;;6.57;3.40;;;13.60;58.50;;;;;;4885294;29;20040;-80
2022/04/29 07:20:20;;;;;;;6.00;3.00;;;13.70;58.70;;;;;;4884574;29;20120;-80
2022/04/29 07:22:45;;;;;;;5.73;3.10;;;13.70;58.90;;;;;;4884436;29;20287;-80
2022/04/29 07:25:13;;;;;;;5.90;2.85;;;13.80;58.90;;;;;;4865057;29;20147;-80
2022/04/29 07:27:40;;;;;;;6.23;3.60;;;13.90;58.80;;;;;;4884475;29;20541;-79
2022/04/29 07:30:07;;;;;;;6.10;3.17;;;14.00;58.70;;;;;;4881489;29;20048;-80
2022/04/29 07:32:33;;;;;;;6.07;3.15;;;14.00;58.70;;;;;;4886991;29;20039;-80
2022/04/29 07:43:13;;;;;;;6.20;3.25;;;14.30;58.90;;;;;;4891488;29;20075;-79
2022/04/29 07:45:40;;;;;;;5.07;2.83;;;14.50;59.10;;;;;;4887829;29;20119;-80
2022/04/29 07:48:06;;;;;;;5.95;3.28;;;14.60;59.00;;;;;;4891734;29;20551;-80
2022/04/29 07:50:33;;;;;;;6.43;3.20;;;14.70;58.60;;;;;;4892441;29;20040;-80
2022/04/29 07:53:00;;;;;;;5.32;3.30;;;14.80;58.40;;;;;;4903896;29;20147;-80
2022/04/29 07:55:26;;;;;;;5.57;3.20;;;14.90;58.40;;;;;;4876097;29;20060;-80
2022/04/29 07:57:52;;;;;;;6.35;3.38;;;14.90;58.40;;;;;;4883699;29;20028;-80
2022/04/29 08:00:18;;;;;;;6.25;3.65;;;15.10;59.00;;;;;;4899262;29;20036;-80
2022/04/29 08:02:43;;;;;;;6.00;3.60;;;15.20;58.80;;;;;;4887937;29;20036;-80
2022/04/29 08:05:09;;;;;;;6.50;3.38;;;15.30;59.10;;;;;;4899588;29;20665;-80
2022/04/29 08:07:35;;;;;;;6.33;3.03;;;15.50;59.00;;;;;;4895769;29;20047;-80
2022/04/29 08:10:01;;;;;;;6.60;3.60;;;15.60;59.00;;;;;;4868301;29;20160;-80
2022/04/29 08:12:27;;;;;;;5.80;3.50;;;15.70;58.50;;;;;;4902731;29;20032;-80
2022/04/29 08:14:53;;;;;;;6.95;3.50;;;15.90;58.00;;;;;;4887154;29;20200;-80
2022/04/29 08:17:20;;;;;;;6.45;3.00;;;15.90;57.70;;;;;;4908926;29;20036;-80
2022/04/29 08:19:45;;;;;;;6.00;3.35;;;16.00;57.60;;;;;;4892438;29;20094;-80
2022/04/29 08:22:11;;;;;;;5.83;3.20;;;16.00;57.30;;;;;;4900911;29;20040;-80
2022/04/29 08:24:37;;;;;;;7.07;2.85;;;16.00;57.30;;;;;;4906069;29;20036;-80
2022/04/29 08:27:03;;;;;;;5.30;3.30;;;16.00;57.20;;;;;;4877690;29;20052;-80
2022/04/29 08:29:29;;;;;;;6.22;3.50;;;16.00;57.00;;;;;;4896871;29;20084;-80
2022/04/29 08:31:55;;;;;;;6.53;3.38;;;16.10;56.70;;;;;;4899018;29;20068;-80
2022/04/29 08:34:22;;;;;;;5.93;3.40;;;16.00;56.60;;;;;;4888331;29;20297;-80
2022/04/29 08:36:47;;;;;;;5.78;3.28;;;16.00;56.50;;;;;;4892198;29;20040;-80
2022/04/29 08:39:13;;;;;;;5.77;3.67;;;15.90;56.20;;;;;;4892718;29;20120;-80
2022/04/29 08:41:40;;;;;;;5.93;3.28;;;15.80;56.10;;;;;;4875320;29;20095;-80
2022/04/29 08:44:10;;;;;;;6.75;3.40;;;15.80;56.20;;;;;;4903442;29;20060;-80
2022/04/29 08:46:40;;;;;;;7.03;3.00;;;15.70;56.30;;;;;;4893765;29;20028;-80
2022/04/29 08:49:07;;;;;;;5.90;3.15;;;15.60;56.20;;;;;;4903963;29;20131;-81
2022/04/29 08:51:35;;;;;;;5.88;3.33;;;15.60;56.20;;;;;;4900689;29;20044;-81
2022/04/29 08:54:02;;;;;;;6.90;3.25;;;15.60;56.30;;;;;;4878299;29;20378;-80
2022/04/29 08:59:13;;;;;;;8.27;3.33;;;15.50;56.80;;;;;;4906220;29;20036;-80
2022/04/29 09:01:43;;;;;;;6.35;3.58;;;15.50;56.50;;;;;;4893938;29;20364;-80
2022/04/29 09:04:08;;;;;;;6.35;3.28;;;15.40;56.60;;;;;;4904618;29;20047;-80
2022/04/29 09:06:34;;;;;;;5.63;3.58;;;15.40;56.40;;;;;;4896811;29;20394;-80
2022/04/29 09:09:09;;;;;;;7.83;3.40;;;15.30;56.40;;;;;;4907387;29;20088;-80
2022/04/29 09:11:36;;;;;;;6.57;3.22;;;15.30;57.00;;;;;;4879063;29;20143;-80
2022/04/29 09:14:20;;;;;;;6.57;3.30;;;15.30;56.60;;;;;;4901922;29;20038;-80
2022/04/29 09:16:45;;;;;;;6.23;3.40;;;15.30;57.20;;;;;;4904809;29;20162;-80
2022/04/29 09:19:32;;;;;;;5.63;3.25;;;15.30;56.70;;;;;;4887644;29;20032;-80
2022/04/29 09:22:08;;;;;;;5.32;3.22;;;15.30;57.30;;;;;;4900063;29;20358;-80
2022/04/29 09:24:37;;;;;;;7.63;3.33;;;15.30;56.90;;;;;;4882232;29;20417;-80
2022/04/29 09:27:05;;;;;;;8.70;3.33;;;15.20;56.50;;;;;;4884495;29;20025;-81
2022/04/29 09:29:41;;;;;;;5.07;3.35;;;15.20;56.50;;;;;;4899066;29;20390;-80
2022/04/29 09:32:07;;;;;;;6.10;3.30;;;15.20;56.90;;;;;;4885349;29;20388;-80
2022/04/29 09:34:53;;;;;;;6.65;3.53;;;15.20;56.50;;;;;;4882542;29;20044;-80
2022/04/29 09:37:27;;;;;;;5.95;3.15;;;15.10;57.50;;;;;;4893156;29;20136;-80
2022/04/29 09:40:00;;;;;;;7.40;3.90;;;15.10;57.20;;;;;;4887148;29;20616;-79
2022/04/29 09:42:40;;;;;;;7.05;4.10;;;15.20;57.10;;;;;;4872124;29;20068;-80
2022/04/29 09:45:13;;;;;;;7.00;3.58;;;15.20;57.50;;;;;;4887057;29;20047;-80
2022/04/29 09:47:38;;;;;;;6.15;3.70;;;15.20;57.40;;;;;;4901717;29;20337;-81
2022/04/29 09:50:05;;;;;;;6.70;3.73;;;15.20;57.10;;;;;;4886181;29;20498;-80
2022/04/29 09:52:31;;;;;;;7.18;3.60;;;15.30;57.30;;;;;;4892672;29;20028;-80
2022/04/29 09:55:10;;;;;;;7.00;3.75;;;15.40;57.30;;;;;;4886921;29;20092;-80
2022/04/29 09:58:01;;;;;;;5.93;3.78;;;15.40;57.70;;;;;;4882013;29;20048;-80
2022/04/29 10:00:27;;;;;;;8.82;3.78;;;15.50;57.40;;;;;;4892663;29;20028;-79
2022/04/29 10:02:53;;;;;;;6.50;3.67;;;15.50;57.00;;;;;;4903496;29;20235;-80
2022/04/29 10:05:19;;;;;;;7.78;4.10;;;15.50;56.90;;;;;;4895036;29;20039;-80
2022/04/29 10:07:45;;;;;;;6.10;3.65;;;15.50;56.80;;;;;;4891499;29;20249;-80
2022/04/29 10:10:12;;;;;;;7.17;4.03;;;15.50;56.80;;;;;;4889403;29;20402;-80
2022/04/29 10:12:39;;;;;;;6.93;4.00;;;15.60;56.90;;;;;;4866414;29;20044;-80
2022/04/29 10:15:06;;;;;;;7.00;3.80;;;15.60;57.10;;;;;;4886861;29;20036;-80
2022/04/29 10:23:11;;;;;;;6.30;3.50;;;15.80;57.70;;;;;;4907297;29;20041;-80
2022/04/29 10:25:42;;;;;;;8.35;3.80;;;15.90;57.60;;;;;;4886637;29;20203;-80
2022/04/29 10:28:09;;;;;;;6.35;3.75;;;16.10;57.80;;;;;;4901027;29;20070;-81
2022/04/29 10:30:38;;;;;;;6.85;3.65;;;16.20;57.70;;;;;;4876828;29;20040;-80
2022/04/29 10:33:17;;;;;;;7.38;3.90;;;16.30;57.80;;;;;;4920511;29;20063;-80
2022/04/29 10:35:49;;;;;;;6.97;3.93;;;16.40;58.30;;;;;;4882545;29;20044;-80
2022/04/29 10:38:27;;;;;;;7.60;3.80;;;16.60;57.20;;;;;;4905679;29;20062;-80
2022/04/29 10:41:15;;;;;;;7.90;3.95;;;16.70;57.20;;;;;;4888530;29;22720;-80
2022/04/29 10:43:46;;;;;;;6.25;3.60;;;16.80;57.10;;;;;;4880440;29;20331;-80
2022/04/29 10:46:13;;;;;;;7.43;3.42;;;16.80;57.00;;;;;;4920425;29;20036;-80
2022/04/29 10:48:40;;;;;;;6.63;3.87;;;16.90;56.90;;;;;;4901431;29;20040;-80
2022/04/29 10:51:10;;;;;;;7.38;4.07;;;17.00;56.80;;;;;;4923411;29;20474;-80
2022/04/29 10:53:41;;;;;;;8.27;4.38;;;17.10;56.60;;;;;;4931923;29;20750;-80
2022/04/29 10:56:32;;;;;;;7.75;4.00;;;17.20;56.70;;;;;;4899966;29;20042;-80
2022/04/29 10:59:03;;;;;;;7.13;3.85;;;17.30;56.50;;;;;;4883595;29;20115;-80
2022/04/29 11:01:34;;;;;;;8.07;4.10;;;17.30;56.70;;;;;;4901876;29;20440;-80
2022/04/29 11:04:20;;;;;;;9.50;4.68;;;17.40;56.60;;;;;;4885333;29;20070;-79
2022/04/29 11:06:47;;;;;;;7.28;3.85;;;17.50;56.50;;;;;;4919325;29;20044;-82
2022/04/29 11:09:34;;;;;;;6.70;4.10;;;17.60;56.60;;;;;;4897304;29;20493;-80
2022/04/29 11:12:00;;;;;;;9.13;4.47;;;17.70;56.70;;;;;;4912247;29;20095;-80
2022/04/29 11:14:26;;;;;;;6.93;3.93;;;17.80;57.40;;;;;;4887880;29;20405;-80
2022/04/29 11:16:56;;;;;;;8.05;4.10;;;18.00;56.90;;;;;;4909395;29;20284;-80
2022/04/29 11:19:28;;;;;;;6.88;4.03;;;18.10;56.70;;;;;;4900800;29;20591;-80
2022/04/29 11:24:50;;;;;;;7.33;4.50;;;18.50;56.30;;;;;;4906875;29;20413;-80
2022/04/29 11:27:31;;;;;;;6.80;4.43;;;18.70;56.20;;;;;;4903605;29;20412;-80
2022/04/29 11:30:01;;;;;;;7.75;4.10;;;18.80;55.70;;;;;;4887233;29;20092;-80
2022/04/29 11:32:27;;;;;;;7.25;4.03;;;19.00;56.30;;;;;;4905437;29;20466;-80
2022/04/29 11:35:00;;;;;;;7.45;4.30;;;19.20;56.20;;;;;;4907825;29;20262;-81
2022/04/29 11:37:28;;;;;;;6.90;4.50;;;19.30;55.90;;;;;;4908197;29;20544;-80
2022/04/29 11:39:55;;;;;;;7.28;4.57;;;19.50;55.50;;;;;;4907282;29;20088;-80
2022/04/29 11:42:22;;;;;;;6.75;4.05;;;19.60;55.30;;;;;;4902669;29;20044;-81
2022/04/29 11:44:49;;;;;;;6.70;4.05;;;19.80;55.30;;;;;;4885275;29;20044;-80
2022/04/29 11:47:17;;;;;;;7.63;4.40;;;19.80;55.00;;;;;;4907627;29;20072;-81
2022/04/29 11:49:43;;;;;;;6.03;3.90;;;20.00;54.50;;;;;;4886777;29;20827;-80
2022/04/29 11:52:32;;;;;;;8.45;4.40;;;20.10;54.50;;;;;;4907363;29;20036;-80
2022/04/29 11:55:11;;;;;;;8.32;4.15;;;20.20;53.60;;;;;;4907900;29;20036;-81
2022/04/29 11:57:49;;;;;;;6.55;3.88;;;20.30;53.90;;;;;;4898007;29;20218;-80
2022/04/29 12:00:24;;;;;;;6.30;4.05;;;20.50;54.50;;;;;;4893483;29;20032;-80
2022/04/29 12:02:50;;;;;;;7.60;4.00;;;20.70;54.40;;;;;;4920066;28;20203;-81
2022/04/29 12:05:16;;;;;;;7.45;4.10;;;21.00;55.10;;;;;;4906251;29;20040;-81
2022/04/29 12:07:44;;;;;;;5.53;4.00;;;21.30;55.00;;;;;;4901580;29;20525;-80
2022/04/29 12:10:21;;;;;;;6.75;4.40;;;21.60;54.40;;;;;;4907351;29;20052;-81
2022/04/29 12:12:48;;;;;;;6.18;4.20;;;22.00;52.70;;;;;;4895421;29;20328;-81
2022/04/29 12:15:20;;;;;;;8.03;4.50;;;22.20;53.80;;;;;;4889218;29;20051;-81
2022/04/29 12:17:48;;;;;;;7.93;4.70;;;22.40;52.90;;;;;;4879915;29;20163;-81
2022/04/29 12:20:18;;;;;;;7.72;4.40;;;22.70;53.10;;;;;;4907797;29;20044;-81
2022/04/29 12:22:47;;;;;;;7.35;4.13;;;22.90;52.20;;;;;;4883127;29;20429;-81
2022/04/29 12:25:29;;;;;;;6.45;4.28;;;23.10;52.10;;;;;;4907209;29;20127;-81
2022/04/29 12:28:15;;;;;;;7.23;4.47;;;23.30;50.60;;;;;;4897524;29;20046;-81
2022/04/29 12:36:45;;;;;;;7.30;4.35;;;23.60;50.10;;;;;;4893894;29;20670;-80
2022/04/29 12:39:11;;;;;;;7.45;4.35;;;23.60;48.60;;;;;;4904324;29;20025;-80
2022/04/29 12:41:36;;;;;;;9.57;4.40;;;23.60;49.10;;;;;;4899528;29;20598;-81
2022/04/29 12:44:11;;;;;;;7.43;4.20;;;23.60;48.90;;;;;;4898480;29;20043;-81
2022/04/29 12:46:37;;;;;;;7.97;4.63;;;23.60;48.30;;;;;;4907204;29;20020;-80
2022/04/29 12:49:03;;;;;;;6.63;4.78;;;23.60;48.70;;;;;;4867266;29;20386;-81
2022/04/29 12:51:33;;;;;;;7.10;4.30;;;23.70;48.80;;;;;;4888830;29;20035;-80
2022/04/29 12:54:07;;;;;;;8.07;4.68;;;23.80;48.70;;;;;;4901756;29;20032;-81
2022/04/29 12:56:34;;;;;;;8.47;4.93;;;23.80;48.50;;;;;;4902842;29;20028;-81
2022/04/29 12:59:03;;;;;;;8.65;4.57;;;23.90;48.10;;;;;;4887302;29;20401;-81
2022/04/29 13:01:39;;;;;;;7.72;4.78;;;24.00;47.90;;;;;;4905934;29;20098;-81
2022/04/29 13:04:06;;;;;;;8.23;4.93;;;24.00;46.60;;;;;;4868196;29;20116;-81
2022/04/29 13:06:32;;;;;;;7.90;4.70;;;24.00;48.00;;;;;;4888547;29;20020;-81
2022/04/29 13:09:00;;;;;;;7.50;4.83;;;24.00;47.10;;;;;;4899129;29;20024;-80
2022/04/29 13:11:26;;;;;;;8.48;4.95;;;24.00;47.10;;;;;;4893838;29;20372;-81
2022/04/29 13:13:53;;;;;;;7.65;4.57;;;24.00;46.60;;;;;;4903297;29;20035;-81
2022/04/29 13:16:20;;;;;;;6.93;4.60;;;24.00;46.20;;;;;;4910552;29;20039;-80
2022/04/29 13:18:46;;;;;;;7.72;5.05;;;23.90;45.60;;;;;;4885647;29;20028;-81
2022/04/29 13:21:13;;;;;;;10.07;4.93;;;23.80;45.20;;;;;;4884536;29;20262;-81
2022/04/29 13:23:41;;;;;;;7.47;4.55;;;23.70;45.50;;;;;;4888413;29;20029;-81
2022/04/29 13:26:07;;;;;;;8.20;4.40;;;23.70;45.70;;;;;;4892508;29;20254;-80
2022/04/29 13:28:34;;;;;;;8.10;4.73;;;23.70;46.20;;;;;;4904765;29;20920;-81